sensor_id;sensor_type;location;lat;lon;timestamp;pressure;altitude;pressure_sealevel;temperature;humidity
55070;BME280;40967;52.070;8.596;2023-02-13T00:01:48;102741.00;;;7.52;100.00
55070;BME280;40967;52.070;8.596;2023-02-13T00:04:13;102728.03;;;7.41;100.00
55070;BME280;40967;52.070;8.596;2023-02-13T00:06:38;102744.69;;;7.44;100.00
55070;BME280;40967;52.070;8.596;2023-02-13T00:09:04;102743.06;;;7.50;100.00
55070;BME280;40967;52.070;8.596;2023-02-13T00:11:29;102745.97;;;7.48;100.00
55070;BME280;40967;52.070;8.596;2023-02-13T00:13:55;102735.72;;;7.44;100.00
55070;BME280;40967;52.070;8.596;2023-02-13T00:16:20;102739.53;;;7.49;100.00
55070;BME280;40967;52.070;8.596;2023-02-13T00:18:48;102744.94;;;7.49;100.00
55070;BME280;40967;52.070;8.596;2023-02-13T00:21:13;102747.44;;;7.51;100.00
55070;BME280;40967;52.070;8.596;2023-02-13T00:23:39;102744.53;;;7.52;100.00
55070;BME280;40967;52.070;8.596;2023-02-13T00:26:07;102735.13;;;7.42;100.00
55070;BME280;40967;52.070;8.596;2023-02-13T00:28:34;102743.72;;;7.52;100.00
55070;BME280;40967;52.070;8.596;2023-02-13T00:31:08;102741.81;;;7.52;100.00
55070;BME280;40967;52.070;8.596;2023-02-13T00:33:33;102734.31;;;7.48;100.00
55070;BME280;40967;52.070;8.596;2023-02-13T00:36:10;102742.03;;;7.51;100.00
55070;BME280;40967;52.070;8.596;2023-02-13T00:38:37;102745.38;;;7.53;100.00
55070;BME280;40967;52.070;8.596;2023-02-13T00:41:03;102739.72;;;7.48;100.00
55070;BME280;40967;52.070;8.596;2023-02-13T00:43:29;102733.09;;;7.50;100.00
55070;BME280;40967;52.070;8.596;2023-02-13T00:45:55;102724.94;;;7.44;100.00
55070;BME280;40967;52.070;8.596;2023-02-13T00:48:22;102727.63;;;7.44;100.00
55070;BME280;40967;52.070;8.596;2023-02-13T00:50:48;102739.53;;;7.49;100.00
55070;BME280;40967;52.070;8.596;2023-02-13T00:53:13;102679.66;;;7.18;100.00
55070;BME280;40967;52.070;8.596;2023-02-13T00:55:39;102737.88;;;7.48;100.00
55070;BME280;40967;52.070;8.596;2023-02-13T00:58:04;102744.09;;;7.49;100.00
55070;BME280;40967;52.070;8.596;2023-02-13T01:00:30;102745.97;;;7.48;100.00
55070;BME280;40967;52.070;8.596;2023-02-13T01:02:56;102740.13;;;7.45;100.00
55070;BME280;40967;52.070;8.596;2023-02-13T01:05:21;102723.88;;;7.38;100.00
55070;BME280;40967;52.070;8.596;2023-02-13T01:07:46;102734.06;;;7.43;100.00
55070;BME280;40967;52.070;8.596;2023-02-13T01:10:12;102733.88;;;7.44;100.00
55070;BME280;40967;52.070;8.596;2023-02-13T01:12:37;102724.69;;;7.39;100.00
55070;BME280;40967;52.070;8.596;2023-02-13T01:15:04;102727.81;;;7.42;100.00
55070;BME280;40967;52.070;8.596;2023-02-13T01:17:30;102736.78;;;7.43;100.00
55070;BME280;40967;52.070;8.596;2023-02-13T01:19:55;102725.53;;;7.39;100.00
55070;BME280;40967;52.070;8.596;2023-02-13T01:22:20;102732.22;;;7.43;100.00
55070;BME280;40967;52.070;8.596;2023-02-13T01:24:46;102704.19;;;7.23;100.00
55070;BME280;40967;52.070;8.596;2023-02-13T01:27:11;102734.28;;;7.41;100.00
55070;BME280;40967;52.070;8.596;2023-02-13T01:29:37;102712.63;;;7.35;100.00
55070;BME280;40967;52.070;8.596;2023-02-13T01:32:02;102727.19;;;7.40;100.00
55070;BME280;40967;52.070;8.596;2023-02-13T01:34:32;102724.47;;;7.40;100.00
55070;BME280;40967;52.070;8.596;2023-02-13T01:36:57;102716.72;;;7.31;100.00
55070;BME280;40967;52.070;8.596;2023-02-13T01:39:23;102718.03;;;7.35;100.00
55070;BME280;40967;52.070;8.596;2023-02-13T01:41:48;102718.38;;;7.32;100.00
55070;BME280;40967;52.070;8.596;2023-02-13T01:47:12;102713.13;;;7.24;100.00
55070;BME280;40967;52.070;8.596;2023-02-13T01:49:39;102716.47;;;7.26;100.00
55070;BME280;40967;52.070;8.596;2023-02-13T01:52:06;102712.50;;;7.22;100.00
55070;BME280;40967;52.070;8.596;2023-02-13T01:54:34;102714.19;;;7.23;100.00
55070;BME280;40967;52.070;8.596;2023-02-13T01:57:17;102714.53;;;7.20;100.00
55070;BME280;40967;52.070;8.596;2023-02-13T01:59:59;102709.75;;;7.15;100.00
55070;BME280;40967;52.070;8.596;2023-02-13T02:02:27;102709.75;;;7.15;100.00
55070;BME280;40967;52.070;8.596;2023-02-13T02:04:54;102701.38;;;7.10;100.00
55070;BME280;40967;52.070;8.596;2023-02-13T02:07:23;102697.25;;;7.14;100.00
55070;BME280;40967;52.070;8.596;2023-02-13T02:09:51;102707.69;;;7.17;100.00
55070;BME280;40967;52.070;8.596;2023-02-13T02:14:49;102708.78;;;7.23;100.00
55070;BME280;40967;52.070;8.596;2023-02-13T02:17:16;102706.44;;;7.20;100.00
55070;BME280;40967;52.070;8.596;2023-02-13T02:25:15;102708.13;;;7.21;100.00
55070;BME280;40967;52.070;8.596;2023-02-13T02:30:45;102697.97;;;7.23;100.00
55070;BME280;40967;52.070;8.596;2023-02-13T02:39:28;102704.84;;;7.25;100.00
55070;BME280;40967;52.070;8.596;2023-02-13T02:50:41;102692.19;;;7.26;100.00
55070;BME280;40967;52.070;8.596;2023-02-13T02:55:51;102671.28;;;7.13;100.00
55070;BME280;40967;52.070;8.596;2023-02-13T02:58:31;102689.47;;;7.26;100.00
55070;BME280;40967;52.070;8.596;2023-02-13T03:01:18;102681.78;;;7.23;100.00
55070;BME280;40967;52.070;8.596;2023-02-13T03:04:04;102684.66;;;7.21;100.00
55070;BME280;40967;52.070;8.596;2023-02-13T03:06:56;102677.38;;;7.22;100.00
55070;BME280;40967;52.070;8.596;2023-02-13T03:09:30;102676.38;;;7.23;100.00
55070;BME280;40967;52.070;8.596;2023-02-13T03:12:19;102675.34;;;7.24;100.00
55070;BME280;40967;52.070;8.596;2023-02-13T03:15:05;102679.69;;;7.25;100.00
55070;BME280;40967;52.070;8.596;2023-02-13T03:17:31;102661.41;;;7.20;100.00
55070;BME280;40967;52.070;8.596;2023-02-13T03:23:32;102656.00;;;7.20;100.00
55070;BME280;40967;52.070;8.596;2023-02-13T03:29:06;102662.81;;;7.16;100.00
55070;BME280;40967;52.070;8.596;2023-02-13T03:32:01;102664.50;;;7.17;100.00
55070;BME280;40967;52.070;8.596;2023-02-13T03:34:33;102660.31;;;7.15;100.00
55070;BME280;40967;52.070;8.596;2023-02-13T03:37:38;102668.41;;;7.15;100.00
55070;BME280;40967;52.070;8.596;2023-02-13T03:40:27;102680.69;;;7.17;100.00
55070;BME280;40967;52.070;8.596;2023-02-13T03:43:03;102675.50;;;7.16;100.00
55070;BME280;40967;52.070;8.596;2023-02-13T03:45:36;102680.03;;;7.15;100.00
55070;BME280;40967;52.070;8.596;2023-02-13T03:48:26;102671.28;;;7.13;100.00
55070;BME280;40967;52.070;8.596;2023-02-13T03:51:16;102655.63;;;7.02;100.00
55070;BME280;40967;52.070;8.596;2023-02-13T03:53:45;102672.97;;;7.14;100.00
55070;BME280;40967;52.070;8.596;2023-02-13T03:56:13;102674.19;;;7.12;100.00
55070;BME280;40967;52.070;8.596;2023-02-13T03:59:01;102670.47;;;7.13;100.00
55070;BME280;40967;52.070;8.596;2023-02-13T04:01:55;102668.81;;;7.12;100.00
55070;BME280;40967;52.070;8.596;2023-02-13T04:04:57;102673.59;;;7.16;100.00
55070;BME280;40967;52.070;8.596;2023-02-13T04:07:25;102674.66;;;7.15;100.00
55070;BME280;40967;52.070;8.596;2023-02-13T04:10:00;102670.00;;;7.09;100.00
55070;BME280;40967;52.070;8.596;2023-02-13T04:12:34;102675.50;;;7.16;100.00
55070;BME280;40967;52.070;8.596;2023-02-13T04:17:38;102682.09;;;7.13;100.00
55070;BME280;40967;52.070;8.596;2023-02-13T04:20:06;102681.06;;;7.14;100.00
55070;BME280;40967;52.070;8.596;2023-02-13T04:22:32;102678.94;;;7.10;100.00
55070;BME280;40967;52.070;8.596;2023-02-13T04:24:58;102683.13;;;7.12;100.00
55070;BME280;40967;52.070;8.596;2023-02-13T04:27:26;102673.75;;;7.08;100.00
55070;BME280;40967;52.070;8.596;2023-02-13T04:29:52;102680.81;;;7.09;100.00
55070;BME280;40967;52.070;8.596;2023-02-13T04:32:17;102678.56;;;7.13;100.00
55070;BME280;40967;52.070;8.596;2023-02-13T04:34:43;102676.25;;;7.10;100.00
55070;BME280;40967;52.070;8.596;2023-02-13T04:37:08;102685.00;;;7.12;100.00
55070;BME280;40967;52.070;8.596;2023-02-13T04:39:34;102681.66;;;7.10;100.00
55070;BME280;40967;52.070;8.596;2023-02-13T04:41:59;102686.41;;;7.08;100.00
55070;BME280;40967;52.070;8.596;2023-02-13T04:44:24;102682.69;;;7.09;100.00
55070;BME280;40967;52.070;8.596;2023-02-13T04:46:50;102678.50;;;7.06;100.00
55070;BME280;40967;52.070;8.596;2023-02-13T04:49:15;102670.16;;;7.01;100.00
55070;BME280;40967;52.070;8.596;2023-02-13T04:51:41;102677.84;;;7.04;100.00
55070;BME280;40967;52.070;8.596;2023-02-13T04:54:06;102678.06;;;7.03;100.00
55070;BME280;40967;52.070;8.596;2023-02-13T04:56:32;102677.22;;;7.02;100.00
55070;BME280;40967;52.070;8.596;2023-02-13T04:58:57;102672.66;;;7.03;100.00
55070;BME280;40967;52.070;8.596;2023-02-13T05:01:34;102665.59;;;7.02;100.00
55070;BME280;40967;52.070;8.596;2023-02-13T05:04:01;102668.31;;;7.02;100.00
55070;BME280;40967;52.070;8.596;2023-02-13T05:06:27;102671.25;;;7.07;100.00
55070;BME280;40967;52.070;8.596;2023-02-13T05:08:52;102659.56;;;7.00;100.00
55070;BME280;40967;52.070;8.596;2023-02-13T05:11:18;102666.25;;;7.04;100.00
55070;BME280;40967;52.070;8.596;2023-02-13T05:13:43;102658.25;;;6.96;100.00
55070;BME280;40967;52.070;8.596;2023-02-13T05:16:08;102663.66;;;6.96;100.00
55070;BME280;40967;52.070;8.596;2023-02-13T05:18:34;102659.31;;;6.95;100.00
55070;BME280;40967;52.070;8.596;2023-02-13T05:20:59;102661.59;;;6.98;100.00
55070;BME280;40967;52.070;8.596;2023-02-13T05:23:43;102652.81;;;6.89;100.00
55070;BME280;40967;52.070;8.596;2023-02-13T05:26:08;102670.75;;;6.97;100.00
55070;BME280;40967;52.070;8.596;2023-02-13T05:28:34;102657.38;;;6.88;100.00
55070;BME280;40967;52.070;8.596;2023-02-13T05:31:19;102670.66;;;6.90;100.00
55070;BME280;40967;52.070;8.596;2023-02-13T05:33:45;102669.00;;;6.89;100.00
55070;BME280;40967;52.070;8.596;2023-02-13T05:36:10;102674.22;;;6.90;100.00
55070;BME280;40967;52.070;8.596;2023-02-13T05:38:36;102681.09;;;6.93;100.00
55070;BME280;40967;52.070;8.596;2023-02-13T05:41:01;102678.19;;;6.95;100.00
55070;BME280;40967;52.070;8.596;2023-02-13T05:43:27;102681.09;;;6.93;100.00
55070;BME280;40967;52.070;8.596;2023-02-13T05:46:07;102679.84;;;6.96;100.00
55070;BME280;40967;52.070;8.596;2023-02-13T05:48:33;102681.09;;;6.93;100.00
55070;BME280;40967;52.070;8.596;2023-02-13T05:50:59;102689.00;;;6.95;100.00
55070;BME280;40967;52.070;8.596;2023-02-13T05:53:25;102685.19;;;6.89;100.00
55070;BME280;40967;52.070;8.596;2023-02-13T05:55:51;102684.16;;;6.90;100.00
55070;BME280;40967;52.070;8.596;2023-02-13T05:58:18;102681.09;;;6.93;100.00
55070;BME280;40967;52.070;8.596;2023-02-13T06:00:44;102685.44;;;6.94;100.00
55070;BME280;40967;52.070;8.596;2023-02-13T06:03:11;102681.47;;;6.90;100.00
55070;BME280;40967;52.070;8.596;2023-02-13T06:05:36;102685.00;;;6.90;100.00
55070;BME280;40967;52.070;8.596;2023-02-13T06:08:02;102693.09;;;6.90;100.00
55070;BME280;40967;52.070;8.596;2023-02-13T06:10:27;102692.69;;;6.93;100.00
55070;BME280;40967;52.070;8.596;2023-02-13T06:12:53;102695.59;;;6.92;100.00
55070;BME280;40967;52.070;8.596;2023-02-13T06:15:18;102698.28;;;6.92;100.00
55070;BME280;40967;52.070;8.596;2023-02-13T06:17:44;102693.94;;;6.91;100.00
55070;BME280;40967;52.070;8.596;2023-02-13T06:20:09;102702.69;;;6.93;100.00
55070;BME280;40967;52.070;8.596;2023-02-13T06:22:35;102690.34;;;6.84;100.00
55070;BME280;40967;52.070;8.596;2023-02-13T06:25:00;102702.84;;;6.91;100.00
55070;BME280;40967;52.070;8.596;2023-02-13T06:27:26;102701.19;;;6.90;100.00
55070;BME280;40967;52.070;8.596;2023-02-13T06:29:51;102707.22;;;6.93;100.00
55070;BME280;40967;52.070;8.596;2023-02-13T06:32:17;102701.78;;;6.86;100.00
55070;BME280;40967;52.070;8.596;2023-02-13T06:34:46;102705.94;;;6.88;100.00
55070;BME280;40967;52.070;8.596;2023-02-13T06:37:12;102697.59;;;6.83;100.00
55070;BME280;40967;52.070;8.596;2023-02-13T06:39:37;102692.13;;;6.77;100.00
55070;BME280;40967;52.070;8.596;2023-02-13T06:42:03;102710.50;;;6.88;100.00
55070;BME280;40967;52.070;8.596;2023-02-13T06:44:28;102705.28;;;6.86;100.00
55070;BME280;40967;52.070;8.596;2023-02-13T06:46:53;102700.69;;;6.80;100.00
55070;BME280;40967;52.070;8.596;2023-02-13T06:49:19;102723.72;;;6.83;100.00
55070;BME280;40967;52.070;8.596;2023-02-13T06:51:44;102722.53;;;6.85;100.00
55070;BME280;40967;52.070;8.596;2023-02-13T06:54:09;102707.28;;;6.78;100.00
55070;BME280;40967;52.070;8.596;2023-02-13T06:56:42;102722.53;;;6.85;100.00
55070;BME280;40967;52.070;8.596;2023-02-13T06:59:08;102724.56;;;6.83;100.00
55070;BME280;40967;52.070;8.596;2023-02-13T07:01:33;102719.56;;;6.80;100.00
55070;BME280;40967;52.070;8.596;2023-02-13T07:04:10;102728.13;;;6.84;100.00
55070;BME280;40967;52.070;8.596;2023-02-13T07:06:36;102720.41;;;6.81;100.00
55070;BME280;40967;52.070;8.596;2023-02-13T07:09:10;102709.06;;;6.71;100.00
55070;BME280;40967;52.070;8.596;2023-02-13T07:11:39;102725.81;;;6.81;100.00
55070;BME280;40967;52.070;8.596;2023-02-13T07:14:08;102727.47;;;6.82;100.00
55070;BME280;40967;52.070;8.596;2023-02-13T07:16:33;102726.41;;;6.83;100.00
55070;BME280;40967;52.070;8.596;2023-02-13T07:19:14;102727.25;;;6.83;100.00
55070;BME280;40967;52.070;8.596;2023-02-13T07:21:44;102737.06;;;6.84;100.00
55070;BME280;40967;52.070;8.596;2023-02-13T07:24:09;102732.47;;;6.85;100.00
55070;BME280;40967;52.070;8.596;2023-02-13T07:26:34;102730.63;;;6.85;100.00
55070;BME280;40967;52.070;8.596;2023-02-13T07:29:01;102724.97;;;6.80;100.00
55070;BME280;40967;52.070;8.596;2023-02-13T07:31:32;102729.56;;;6.86;100.00
55070;BME280;40967;52.070;8.596;2023-02-13T07:34:18;102732.28;;;6.86;100.00
55070;BME280;40967;52.070;8.596;2023-02-13T07:36:44;102738.72;;;6.85;100.00
55070;BME280;40967;52.070;8.596;2023-02-13T07:39:09;102733.50;;;6.84;100.00
55070;BME280;40967;52.070;8.596;2023-02-13T07:41:34;102742.88;;;6.88;100.00
55070;BME280;40967;52.070;8.596;2023-02-13T07:44:00;102743.31;;;6.91;100.00
55070;BME280;40967;52.070;8.596;2023-02-13T07:46:25;102727.91;;;6.85;100.00
55070;BME280;40967;52.070;8.596;2023-02-13T07:48:54;102745.00;;;6.93;100.00
55070;BME280;40967;52.070;8.596;2023-02-13T07:51:20;102738.78;;;6.92;100.00
55070;BME280;40967;52.070;8.596;2023-02-13T07:53:49;102728.75;;;6.86;100.00
55070;BME280;40967;52.070;8.596;2023-02-13T07:56:15;102743.78;;;6.95;100.00
55070;BME280;40967;52.070;8.596;2023-02-13T07:58:40;102741.53;;;6.99;100.00
55070;BME280;40967;52.070;8.596;2023-02-13T08:01:07;102726.13;;;6.93;100.00
55070;BME280;40967;52.070;8.596;2023-02-13T08:03:34;102723.63;;;6.91;100.00
55070;BME280;40967;52.070;8.596;2023-02-13T08:05:59;102731.97;;;6.96;100.00
55070;BME280;40967;52.070;8.596;2023-02-13T08:08:25;102743.88;;;7.02;100.00
55070;BME280;40967;52.070;8.596;2023-02-13T08:10:50;102741.81;;;7.04;100.00
55070;BME280;40967;52.070;8.596;2023-02-13T08:13:34;102738.94;;;7.05;100.00
55070;BME280;40967;52.070;8.596;2023-02-13T08:16:01;102748.28;;;7.09;100.00
55070;BME280;40967;52.070;8.596;2023-02-13T08:18:27;102740.19;;;7.09;100.00
55070;BME280;40967;52.070;8.596;2023-02-13T08:20:52;102738.97;;;7.12;100.00
55070;BME280;40967;52.070;8.596;2023-02-13T08:23:18;102737.56;;;7.16;100.00
55070;BME280;40967;52.070;8.596;2023-02-13T08:25:43;102724.00;;;7.09;100.00
55070;BME280;40967;52.070;8.596;2023-02-13T08:28:09;102746.56;;;7.23;100.00
55070;BME280;40967;52.070;8.596;2023-02-13T08:30:35;102737.63;;;7.22;100.00
55070;BME280;40967;52.070;8.596;2023-02-13T08:33:11;102730.19;;;7.24;100.00
55070;BME280;40967;52.070;8.596;2023-02-13T08:35:36;102733.06;;;7.23;100.00
55070;BME280;40967;52.070;8.596;2023-02-13T08:38:03;102728.94;;;7.27;100.00
55070;BME280;40967;52.070;8.596;2023-02-13T08:40:29;102738.34;;;7.31;100.00
55070;BME280;40967;52.070;8.596;2023-02-13T08:42:59;102740.84;;;7.32;100.00
55070;BME280;40967;52.070;8.596;2023-02-13T08:45:25;102747.06;;;7.33;100.00
55070;BME280;40967;52.070;8.596;2023-02-13T08:47:50;102739.63;;;7.35;100.00
55070;BME280;40967;52.070;8.596;2023-02-13T08:50:19;102736.53;;;7.38;100.00
55070;BME280;40967;52.070;8.596;2023-02-13T08:52:46;102743.84;;;7.44;100.00
55070;BME280;40967;52.070;8.596;2023-02-13T08:55:11;102748.22;;;7.45;100.00
55070;BME280;40967;52.070;8.596;2023-02-13T08:57:40;102744.47;;;7.46;100.00
55070;BME280;40967;52.070;8.596;2023-02-13T09:00:07;102754.06;;;7.48;100.00
55070;BME280;40967;52.070;8.596;2023-02-13T09:02:34;102738.25;;;7.45;100.00
55070;BME280;40967;52.070;8.596;2023-02-13T09:04:59;102751.81;;;7.52;100.00
55070;BME280;40967;52.070;8.596;2023-02-13T09:07:24;102749.34;;;7.57;100.00
55070;BME280;40967;52.070;8.596;2023-02-13T09:09:50;102753.34;;;7.61;100.00
55070;BME280;40967;52.070;8.596;2023-02-13T09:12:15;102750.25;;;7.64;100.00
55070;BME280;40967;52.070;8.596;2023-02-13T09:14:41;102746.94;;;7.68;100.00
55070;BME280;40967;52.070;8.596;2023-02-13T09:17:09;102750.94;;;7.72;100.00
55070;BME280;40967;52.070;8.596;2023-02-13T09:19:35;102750.09;;;7.72;100.00
55070;BME280;40967;52.070;8.596;2023-02-13T09:22:00;102752.84;;;7.78;100.00
55070;BME280;40967;52.070;8.596;2023-02-13T09:24:25;102754.13;;;7.82;100.00
55070;BME280;40967;52.070;8.596;2023-02-13T09:26:51;102752.91;;;7.85;100.00
55070;BME280;40967;52.070;8.596;2023-02-13T09:29:16;102747.94;;;7.88;100.00
55070;BME280;40967;52.070;8.596;2023-02-13T09:31:42;102749.59;;;7.89;100.00
55070;BME280;40967;52.070;8.596;2023-02-13T09:34:08;102746.28;;;7.94;100.00
55070;BME280;40967;52.070;8.596;2023-02-13T09:36:33;102741.72;;;7.94;100.00
55070;BME280;40967;52.070;8.596;2023-02-13T09:39:01;102751.34;;;8.03;100.00
55070;BME280;40967;52.070;8.596;2023-02-13T09:41:48;102747.22;;;8.07;100.00
55070;BME280;40967;52.070;8.596;2023-02-13T09:44:29;102757.03;;;8.15;100.00
55070;BME280;40967;52.070;8.596;2023-02-13T09:47:23;102751.84;;;8.20;100.00
55070;BME280;40967;52.070;8.596;2023-02-13T09:50:05;102755.66;;;8.26;100.00
55070;BME280;40967;52.070;8.596;2023-02-13T09:52:36;102759.44;;;8.31;100.00
55070;BME280;40967;52.070;8.596;2023-02-13T09:55:13;102752.75;;;8.27;99.98
55070;BME280;40967;52.070;8.596;2023-02-13T10:00:53;102763.88;;;8.45;100.00
55070;BME280;40967;52.070;8.596;2023-02-13T10:08:43;102761.88;;;8.60;99.09
55070;BME280;40967;52.070;8.596;2023-02-13T10:17:13;102737.06;;;8.50;97.98
55070;BME280;40967;52.070;8.596;2023-02-13T10:19:54;102760.66;;;8.69;97.98
55070;BME280;40967;52.070;8.596;2023-02-13T10:22:29;102758.16;;;8.74;97.99
55070;BME280;40967;52.070;8.596;2023-02-13T10:25:16;102763.44;;;8.82;97.19
55070;BME280;40967;52.070;8.596;2023-02-13T10:27:54;102744.25;;;8.77;96.71
55070;BME280;40967;52.070;8.596;2023-02-13T10:30:24;102750.09;;;8.87;96.35
55070;BME280;40967;52.070;8.596;2023-02-13T10:33:12;102751.78;;;8.95;96.32
55070;BME280;40967;52.070;8.596;2023-02-13T10:38:27;102753.47;;;9.02;95.46
55070;BME280;40967;52.070;8.596;2023-02-13T11:04:52;102741.19;;;9.19;93.47
55070;BME280;40967;52.070;8.596;2023-02-13T11:07:25;102742.47;;;9.24;93.21
55070;BME280;40967;52.070;8.596;2023-02-13T11:09:54;102737.25;;;9.29;92.77
55070;BME280;40967;52.070;8.596;2023-02-13T11:12:33;102741.03;;;9.34;92.16
55070;BME280;40967;52.070;8.596;2023-02-13T11:15:39;102738.09;;;9.36;91.77
55070;BME280;40967;52.070;8.596;2023-02-13T11:18:17;102727.47;;;9.34;92.14
55070;BME280;40967;52.070;8.596;2023-02-13T11:20:44;102732.88;;;9.41;91.74
55070;BME280;40967;52.070;8.596;2023-02-13T11:32:29;102726.22;;;9.50;90.30
55070;BME280;40967;52.070;8.596;2023-02-13T11:34:56;102710.19;;;9.42;89.99
55070;BME280;40967;52.070;8.596;2023-02-13T11:38:11;102721.44;;;9.52;90.10
55070;BME280;40967;52.070;8.596;2023-02-13T11:41:12;102720.59;;;9.51;89.83
55070;BME280;40967;52.070;8.596;2023-02-13T11:43:52;102709.75;;;9.45;89.73
55070;BME280;40967;52.070;8.596;2023-02-13T11:46:45;102688.69;;;9.40;89.90
55070;BME280;40967;52.070;8.596;2023-02-13T11:49:36;102714.53;;;9.56;90.26
55070;BME280;40967;52.070;8.596;2023-02-13T11:52:30;102704.31;;;9.58;90.17
55070;BME280;40967;52.070;8.596;2023-02-13T11:55:33;102701.22;;;9.61;89.78
55070;BME280;40967;52.070;8.596;2023-02-13T11:58:25;102711.59;;;9.77;88.70
55070;BME280;40967;52.070;8.596;2023-02-13T12:03:40;102715.09;;;9.90;89.59
55070;BME280;40967;52.070;8.596;2023-02-13T12:17:40;102702.34;;;10.17;88.36
55070;BME280;40967;52.070;8.596;2023-02-13T12:19:56;102689.81;;;10.22;87.48
55070;BME280;40967;52.070;8.596;2023-02-13T12:23:06;102653.56;;;10.04;86.98
55070;BME280;40967;52.070;8.596;2023-02-13T12:45:37;102669.81;;;10.61;83.53
55070;BME280;40967;52.070;8.596;2023-02-13T12:48:47;102648.94;;;10.55;83.17
55070;BME280;40967;52.070;8.596;2023-02-13T12:54:48;102647.78;;;10.76;82.93
55070;BME280;40967;52.070;8.596;2023-02-13T13:01:01;102644.13;;;10.88;82.27
55070;BME280;40967;52.070;8.596;2023-02-13T13:22:03;102616.53;;;11.40;79.12
55070;BME280;40967;52.070;8.596;2023-02-13T13:24:46;102614.41;;;11.42;78.70
55070;BME280;40967;52.070;8.596;2023-02-13T13:30:11;102615.84;;;11.45;78.51
55070;BME280;40967;52.070;8.596;2023-02-13T13:33:04;102614.94;;;11.51;77.65
55070;BME280;40967;52.070;8.596;2023-02-13T13:39:01;102608.03;;;11.55;77.51
55070;BME280;40967;52.070;8.596;2023-02-13T13:45:25;102608.25;;;11.54;76.60
55070;BME280;40967;52.070;8.596;2023-02-13T13:51:00;102612.22;;;11.51;76.45
55070;BME280;40967;52.070;8.596;2023-02-13T13:53:25;102601.44;;;11.44;76.67
55070;BME280;40967;52.070;8.596;2023-02-13T13:58:49;102608.16;;;11.60;77.23
55070;BME280;40967;52.070;8.596;2023-02-13T14:01:33;102492.81;;;10.95;76.80
55070;BME280;40967;52.070;8.596;2023-02-13T14:09:46;102557.72;;;11.46;76.10
55070;BME280;40967;52.070;8.596;2023-02-13T14:14:55;102596.00;;;11.63;76.41
55070;BME280;40967;52.070;8.596;2023-02-13T14:23:35;102594.13;;;11.63;76.68
55070;BME280;40967;52.070;8.596;2023-02-13T14:29:43;102586.97;;;11.69;76.38
55070;BME280;40967;52.070;8.596;2023-02-13T14:32:13;102552.03;;;11.48;76.13
55070;BME280;40967;52.070;8.596;2023-02-13T14:34:40;102591.81;;;11.67;76.10
55070;BME280;40967;52.070;8.596;2023-02-13T14:37:19;102583.41;;;11.68;76.52
55070;BME280;40967;52.070;8.596;2023-02-13T14:40:41;102580.69;;;11.68;76.42
55070;BME280;40967;52.070;8.596;2023-02-13T14:48:34;102572.59;;;11.62;75.98
55070;BME280;40967;52.070;8.596;2023-02-13T14:51:02;102567.84;;;11.57;76.07
55070;BME280;40967;52.070;8.596;2023-02-13T14:53:34;102564.94;;;11.52;75.25
55070;BME280;40967;52.070;8.596;2023-02-13T14:56:12;102565.03;;;11.45;75.70
55070;BME280;40967;52.070;8.596;2023-02-13T14:58:49;102580.13;;;11.41;75.55
55070;BME280;40967;52.070;8.596;2023-02-13T15:04:12;102570.56;;;11.14;76.05
55070;BME280;40967;52.070;8.596;2023-02-13T15:06:41;102580.06;;;11.05;75.76
55070;BME280;40967;52.070;8.596;2023-02-13T15:10:23;102566.59;;;10.92;76.55
55070;BME280;40967;52.070;8.596;2023-02-13T15:14:49;102566.38;;;10.69;77.34
55070;BME280;40967;52.070;8.596;2023-02-13T15:17:19;102561.88;;;10.57;77.24
55070;BME280;40967;52.070;8.596;2023-02-13T15:19:49;102553.59;;;10.45;77.91
55070;BME280;40967;52.070;8.596;2023-02-13T15:22:19;102554.88;;;10.43;77.80
55070;BME280;40967;52.070;8.596;2023-02-13T15:24:46;102549.50;;;10.36;77.83
55070;BME280;40967;52.070;8.596;2023-02-13T15:27:22;102546.22;;;10.27;78.22
55070;BME280;40967;52.070;8.596;2023-02-13T15:32:35;102541.53;;;10.03;78.65
55070;BME280;40967;52.070;8.596;2023-02-13T15:35:13;102545.97;;;9.91;79.11
55070;BME280;40967;52.070;8.596;2023-02-13T15:37:45;102546.63;;;9.80;80.05
55070;BME280;40967;52.070;8.596;2023-02-13T15:40:22;102545.41;;;9.70;80.59
55070;BME280;40967;52.070;8.596;2023-02-13T15:42:49;102553.16;;;9.66;80.84
55070;BME280;40967;52.070;8.596;2023-02-13T15:45:17;102541.09;;;9.56;81.11
55070;BME280;40967;52.070;8.596;2023-02-13T15:47:44;102549.25;;;9.49;81.52
55070;BME280;40967;52.070;8.596;2023-02-13T15:52:43;102531.38;;;9.29;82.28
55070;BME280;40967;52.070;8.596;2023-02-13T15:55:21;102538.06;;;9.33;82.40
55070;BME280;40967;52.070;8.596;2023-02-13T15:57:48;102534.13;;;9.22;82.61
55070;BME280;40967;52.070;8.596;2023-02-13T16:00:21;102548.69;;;9.21;82.83
55070;BME280;40967;52.070;8.596;2023-02-13T16:02:48;102542.25;;;9.15;82.96
55070;BME280;40967;52.070;8.596;2023-02-13T16:05:15;102531.44;;;9.02;82.94
55070;BME280;40967;52.070;8.596;2023-02-13T16:07:50;102536.22;;;9.00;83.33
55070;BME280;40967;52.070;8.596;2023-02-13T16:10:29;102521.22;;;8.91;83.59
55070;BME280;40967;52.070;8.596;2023-02-13T16:12:57;102504.59;;;8.75;83.52
55070;BME280;40967;52.070;8.596;2023-02-13T16:15:27;102535.63;;;8.85;83.99
55070;BME280;40967;52.070;8.596;2023-02-13T16:17:53;102514.81;;;8.66;84.02
55070;BME280;40967;52.070;8.596;2023-02-13T16:20:22;102534.59;;;8.73;84.14
55070;BME280;40967;52.070;8.596;2023-02-13T16:25:34;102507.75;;;8.46;84.29
55070;BME280;40967;52.070;8.596;2023-02-13T16:28:21;102530.44;;;8.51;84.79
55070;BME280;40967;52.070;8.596;2023-02-13T16:33:22;102526.66;;;8.39;85.77
55070;BME280;40967;52.070;8.596;2023-02-13T16:35:52;102532.25;;;8.31;85.63
55070;BME280;40967;52.070;8.596;2023-02-13T16:38:28;102539.09;;;8.27;86.19
55070;BME280;40967;52.070;8.596;2023-02-13T16:40:55;102537.22;;;8.21;85.96